createdAt,value
2019-04-29T06:06:04.470Z,4756.00
2019-04-29T06:07:04.412Z,5088.00
2019-04-29T06:08:04.382Z,5304.00
2019-04-29T06:09:04.355Z,5268.00
2019-04-29T06:10:04.348Z,5080.00
2019-04-29T06:11:04.322Z,5116.00
2019-04-29T06:13:04.261Z,5356.00
2019-04-29T06:14:04.229Z,5396.00
2019-04-29T06:15:04.219Z,5220.00
2019-04-29T06:16:04.180Z,5192.00
2019-04-29T06:17:07.684Z,5008.00
2019-04-29T06:18:04.133Z,5028.00
2019-04-29T06:19:05.868Z,5424.00
2019-04-29T06:20:04.103Z,5400.00
2019-04-29T06:21:09.306Z,5468.00
2019-04-29T06:22:04.077Z,5304.00
2019-04-29T06:23:04.017Z,4956.00
2019-04-29T06:24:06.102Z,5004.00
2019-04-29T06:25:03.990Z,6132.00
2019-04-29T06:26:03.951Z,6328.00
2019-04-29T06:27:03.926Z,6124.00
2019-04-29T06:28:03.902Z,5444.00
2019-04-29T06:29:05.841Z,5252.00
2019-04-29T06:36:51.957Z,7332.00
2019-04-29T06:37:51.914Z,6620.00
2019-04-29T06:38:51.900Z,6024.00
2019-04-29T06:39:51.867Z,7656.00
2019-04-29T06:40:51.856Z,7352.00
2019-04-29T06:41:51.820Z,6980.00
2019-04-29T06:42:53.480Z,7252.00
2019-04-29T06:43:54.200Z,7460.00
2019-04-29T06:44:51.752Z,6388.00
2019-04-29T06:45:51.765Z,6676.00
2019-04-29T06:46:54.583Z,6688.00
2019-04-29T06:54:31.471Z,5836.00
2019-04-29T06:55:31.434Z,5536.00
2019-04-29T06:56:31.424Z,5276.00
2019-04-29T06:57:31.386Z,5276.00
2019-04-29T06:58:32.592Z,4872.00
2019-04-29T06:59:31.340Z,4732.00
2019-04-29T08:18:18.207Z,3768.00
2019-04-29T08:19:17.940Z,3740.00
2019-04-29T08:20:17.916Z,3732.00
2019-04-29T08:21:17.891Z,3752.00
2019-04-29T08:22:18.330Z,3760.00
2019-04-29T08:23:17.862Z,3768.00
2019-04-29T08:24:17.824Z,3740.00
2019-04-29T08:25:21.804Z,3796.00
2019-04-29T08:26:17.779Z,3828.00
2019-04-29T08:27:17.760Z,3868.00
2019-04-29T08:28:17.752Z,3896.00
2019-04-29T08:29:17.716Z,3928.00
2019-04-29T08:30:18.314Z,3876.00
2019-04-29T08:31:21.070Z,3884.00
2019-04-29T08:32:17.654Z,3892.00
2019-04-29T08:33:17.647Z,3908.00
2019-04-29T08:34:18.747Z,3944.00
2019-04-29T09:13:59.726Z,4320.00
2019-04-29T09:14:59.688Z,4444.00
2019-04-29T09:15:59.668Z,4572.00
2019-04-29T09:16:59.643Z,4644.00
2019-04-29T09:17:59.623Z,4696.00
2019-04-29T09:18:59.613Z,4712.00
2019-04-29T09:19:59.579Z,4724.00
2019-04-29T09:20:59.558Z,4724.00
2019-04-29T09:21:59.543Z,4708.00
2019-04-29T09:22:59.523Z,4648.00
2019-04-29T09:23:59.514Z,4564.00
2019-04-29T09:24:59.477Z,4492.00
2019-04-29T09:26:02.784Z,4448.00
2019-04-29T09:26:59.440Z,4384.00
2019-04-29T09:27:59.424Z,4376.00
2019-04-29T09:53:53.143Z,4948.00
2019-04-29T09:54:53.123Z,5140.00
2019-04-29T09:55:53.087Z,5600.00
2019-04-29T09:56:53.067Z,6128.00
2019-04-29T09:57:53.048Z,6680.00
2019-04-29T09:58:53.032Z,6956.00
2019-04-29T09:59:53.025Z,7752.00
2019-04-29T10:00:52.989Z,9020.00
2019-04-29T10:01:54.965Z,9276.00
2019-04-29T10:02:52.951Z,8672.00
2019-04-29T10:03:52.949Z,8488.00
2019-04-29T10:04:56.719Z,8384.00
2019-04-29T10:05:52.896Z,9568.00
2019-04-29T10:06:52.878Z,9660.00
2019-04-29T10:07:52.862Z,8008.00
2019-04-29T10:08:52.843Z,8244.00
2019-04-29T10:09:57.526Z,8088.00
2019-04-29T10:10:52.827Z,8864.00
2019-04-29T10:11:52.791Z,8488.00
2019-04-29T10:12:54.077Z,8348.00
2019-04-29T10:13:52.756Z,10524.00
2019-04-29T10:14:52.743Z,11444.00
2019-04-29T10:15:55.949Z,12492.00
2019-04-29T10:16:52.703Z,11636.00
2019-04-29T10:17:55.823Z,10648.00
2019-04-29T10:18:52.670Z,9424.00
2019-04-29T10:19:52.654Z,8872.00
2019-04-29T10:20:52.651Z,9632.00
2019-04-29T10:21:52.621Z,10108.00
2019-04-29T10:22:53.746Z,10676.00
2019-04-29T10:23:52.587Z,11104.00
2019-04-29T10:24:52.568Z,10912.00
2019-04-29T10:25:52.572Z,10040.00
2019-04-29T10:26:52.539Z,10752.00
2019-04-29T10:27:52.521Z,11080.00
2019-04-29T10:28:52.506Z,11116.00
2019-04-29T10:29:55.306Z,10680.00
2019-04-29T10:30:52.486Z,11620.00
2019-04-29T10:31:52.458Z,12248.00
2019-04-29T10:32:52.457Z,11120.00
2019-04-29T10:33:55.104Z,11192.00
2019-04-29T10:34:52.405Z,10872.00
2019-04-29T10:35:52.402Z,10532.00
2019-04-29T10:36:53.634Z,10152.00
2019-04-29T10:37:52.356Z,10204.00
2019-04-29T10:38:52.342Z,10604.00
2019-04-29T10:39:52.333Z,11180.00
2019-04-29T10:40:52.322Z,11880.00
2019-04-29T10:41:52.313Z,11844.00
2019-04-29T10:42:52.278Z,12704.00
2019-04-29T10:43:53.550Z,12800.00
2019-04-29T10:44:52.246Z,12728.00
2019-04-29T10:45:52.242Z,12980.00
2019-04-29T10:46:52.214Z,14028.00
2019-04-29T10:47:52.200Z,15464.00
2019-04-29T10:48:52.182Z,15052.00
2019-04-29T10:49:52.166Z,15332.00
2019-04-29T10:50:52.466Z,15884.00
2019-04-29T10:51:52.141Z,16368.00
2019-04-29T10:52:52.124Z,17216.00
2019-04-29T10:53:52.738Z,17312.00
2019-04-29T10:54:55.379Z,15452.00
2019-04-29T10:55:52.076Z,15444.00
2019-04-29T10:56:52.074Z,14680.00
2019-04-29T10:57:52.044Z,15396.00
2019-04-29T10:58:52.027Z,15824.00
2019-04-29T10:59:52.013Z,17152.00
2019-04-29T11:00:52.728Z,17024.00
2019-04-29T11:02:01.131Z,16356.00
2019-04-29T11:02:51.966Z,17984.00
2019-04-29T11:03:55.892Z,18208.00
2019-04-29T11:04:51.946Z,19680.00
2019-04-29T11:06:00.376Z,20640.00
2019-04-29T11:06:51.923Z,20480.00
2019-04-29T11:07:51.893Z,20032.00
2019-04-29T11:08:51.886Z,18976.00
2019-04-29T11:09:52.615Z,17728.00
2019-04-29T11:10:51.849Z,17044.00
2019-04-29T11:11:51.851Z,16616.00
2019-04-29T11:12:51.821Z,15904.00
2019-04-29T11:13:51.804Z,15436.00
2019-04-29T11:14:51.791Z,15616.00
2019-04-29T11:15:51.776Z,16520.00
2019-04-29T11:16:51.775Z,17728.00
2019-04-29T11:17:58.709Z,18048.00
2019-04-29T11:18:54.958Z,19232.00
2019-04-29T11:19:51.719Z,20224.00
2019-04-29T11:20:53.662Z,21120.00
2019-04-29T11:21:51.707Z,21248.00
2019-04-29T11:22:51.675Z,20192.00
2019-04-29T11:23:54.877Z,17568.00
2019-04-29T11:24:51.647Z,16704.00
2019-04-29T11:25:51.652Z,16160.00
2019-04-29T11:26:51.635Z,16480.00
2019-04-29T11:27:51.605Z,15420.00
2019-04-29T11:28:52.386Z,15436.00
2019-04-29T11:29:51.578Z,16212.00
2019-04-29T11:30:51.563Z,16192.00
2019-04-29T11:31:54.014Z,17856.00
2019-04-29T11:32:51.534Z,19328.00
2019-04-29T11:33:51.520Z,21248.00
2019-04-29T11:34:53.396Z,24160.00
2019-04-29T11:35:51.494Z,25056.00
2019-04-29T11:36:51.500Z,24992.00
2019-04-29T11:37:55.369Z,24512.00
2019-04-29T11:38:51.451Z,23552.00
2019-04-29T11:39:51.759Z,21984.00
2019-04-29T11:40:51.424Z,21088.00
2019-04-29T11:41:54.615Z,20480.00
2019-04-29T11:42:51.410Z,20384.00
2019-04-29T11:43:52.846Z,20160.00
2019-04-29T11:44:51.372Z,17600.00
2019-04-29T11:45:51.353Z,14728.00
2019-04-29T11:46:51.343Z,13232.00
2019-04-29T11:47:51.354Z,12004.00
2019-04-29T11:48:51.312Z,11372.00
2019-04-29T11:49:51.299Z,10660.00
2019-04-29T11:50:54.762Z,10644.00
2019-04-29T11:52:08.569Z,11036.00
2019-04-29T11:52:51.272Z,11628.00
2019-04-29T11:53:51.247Z,12112.00
2019-04-29T11:54:51.236Z,12296.00
2019-04-29T11:55:52.448Z,12008.00
2019-04-29T11:56:51.203Z,11556.00
2019-04-29T11:57:51.213Z,11384.00
2019-04-29T11:58:51.179Z,12944.00
2019-04-29T11:59:51.163Z,16388.00
2019-04-29T12:00:52.074Z,16896.00
2019-04-29T12:01:51.862Z,17028.00
2019-04-29T12:02:51.148Z,17728.00
2019-04-29T12:03:55.761Z,18976.00
2019-04-29T12:04:51.089Z,20000.00
2019-04-29T12:05:51.075Z,20768.00
2019-04-29T12:06:55.746Z,20896.00
2019-04-29T12:07:51.084Z,19168.00
2019-04-29T12:08:53.222Z,18304.00
2019-04-29T12:09:51.018Z,15852.00
2019-04-29T12:11:05.929Z,15520.00
2019-04-29T12:11:50.994Z,13568.00
2019-04-29T12:12:51.042Z,13472.00
2019-04-29T12:13:50.989Z,13800.00
2019-04-29T12:14:50.951Z,13540.00
2019-04-29T12:15:50.938Z,13772.00
2019-04-29T12:16:50.923Z,14304.00
2019-04-29T12:17:50.914Z,14516.00
2019-04-29T12:18:50.911Z,14880.00
2019-04-29T12:19:50.884Z,16160.00
2019-04-29T12:20:50.870Z,18176.00
2019-04-29T12:21:50.856Z,19616.00
2019-04-29T12:22:50.854Z,20608.00
2019-04-29T12:23:52.013Z,22080.00
2019-04-29T12:24:50.814Z,21632.00
2019-04-29T12:25:50.802Z,22496.00
2019-04-29T12:26:50.787Z,24128.00
2019-04-29T12:27:59.637Z,22848.00
2019-04-29T12:28:50.775Z,24096.00
2019-04-29T12:29:54.452Z,22976.00
2019-04-29T12:30:50.730Z,18368.00
2019-04-29T12:31:51.178Z,14512.00
2019-04-29T12:32:50.704Z,12964.00
2019-04-29T12:33:50.708Z,12100.00
2019-04-29T12:34:50.696Z,11800.00
2019-04-29T12:35:52.262Z,11884.00
2019-04-29T12:36:55.985Z,12272.00
2019-04-29T12:37:50.639Z,12684.00
2019-04-29T12:38:51.095Z,13840.00
2019-04-29T12:39:50.608Z,14808.00
2019-04-29T12:40:54.692Z,15392.00
2019-04-29T12:41:50.594Z,15040.00
2019-04-29T12:42:50.597Z,15384.00
2019-04-29T12:43:54.044Z,16180.00
2019-04-29T12:44:50.563Z,17568.00
2019-04-29T12:45:53.598Z,18528.00
2019-04-29T12:46:50.516Z,18464.00
2019-04-29T12:47:50.502Z,19040.00
2019-04-29T12:48:50.497Z,20064.00
2019-04-29T12:49:50.470Z,22912.00
2019-04-29T12:50:55.231Z,26592.00
2019-04-29T12:51:50.440Z,29536.00
2019-04-29T12:52:50.434Z,28640.00
2019-04-29T12:53:50.429Z,26272.00
2019-04-29T12:54:50.400Z,23200.00
2019-04-29T12:55:53.552Z,21952.00
2019-04-29T12:56:50.372Z,21568.00
2019-04-29T12:57:51.535Z,21952.00
2019-04-29T12:58:50.849Z,24448.00
2019-04-29T12:59:50.330Z,27264.00
2019-04-29T13:01:00.107Z,28192.00
2019-04-29T13:01:54.149Z,24928.00
2019-04-29T13:02:50.306Z,20544.00
2019-04-29T13:03:50.279Z,19392.00
2019-04-29T13:04:51.521Z,17824.00
2019-04-29T13:05:58.057Z,17344.00
2019-04-29T13:06:50.238Z,18368.00
2019-04-29T13:07:50.228Z,20544.00
2019-04-29T13:08:50.214Z,23648.00
2019-04-29T13:09:50.214Z,26176.00
2019-04-29T13:10:50.187Z,29568.00
2019-04-29T13:11:56.130Z,32352.00
2019-04-29T13:12:50.159Z,34176.00
2019-04-29T13:13:51.372Z,34144.00
2019-04-29T13:15:02.255Z,32992.00
2019-04-29T13:15:50.121Z,30240.00
2019-04-29T13:16:50.866Z,29600.00
2019-04-29T13:18:02.660Z,28672.00
2019-04-29T13:18:53.959Z,27552.00
2019-04-29T13:20:00.723Z,28224.00
2019-04-29T13:20:52.140Z,28736.00
2019-04-29T13:21:50.042Z,32448.00
2019-04-29T13:22:50.030Z,33440.00
2019-04-29T13:24:04.931Z,32480.00
2019-04-29T13:24:50.013Z,27200.00
2019-04-29T13:25:50.882Z,32544.00
2019-04-29T13:26:49.978Z,27136.00
2019-04-29T13:27:49.967Z,22496.00
2019-04-29T13:29:00.277Z,21024.00
2019-04-29T13:29:49.955Z,21280.00
2019-04-29T13:30:51.337Z,22272.00
2019-04-29T13:31:49.913Z,26784.00
2019-04-29T13:32:49.900Z,43392.00
2019-04-29T13:33:51.046Z,48800.00
2019-04-29T13:34:49.890Z,49792.00
2019-04-29T13:35:49.861Z,51680.00
2019-04-29T13:37:06.037Z,57760.00
2019-04-29T13:37:49.832Z,50304.00
2019-04-29T13:38:49.820Z,50944.00
2019-04-29T13:39:55.156Z,37248.00
2019-04-29T13:40:49.815Z,38240.00
2019-04-29T13:41:57.521Z,27296.00
2019-04-29T13:42:51.077Z,34944.00
2019-04-29T13:43:49.756Z,39776.00
2019-04-29T13:45:05.028Z,34624.00
2019-04-29T13:45:49.749Z,31808.00
2019-04-29T13:46:51.083Z,29184.00
2019-04-29T13:47:50.488Z,30112.00
2019-04-29T13:48:56.007Z,33952.00
2019-04-29T13:49:49.795Z,43584.00
2019-04-29T13:50:49.686Z,47968.00
2019-04-29T13:51:49.691Z,35424.00
2019-04-29T13:52:49.691Z,41216.00
2019-04-29T13:53:49.669Z,38976.00
2019-04-29T13:54:49.688Z,36992.00
2019-04-29T13:55:50.097Z,30368.00
2019-04-29T13:56:55.975Z,29088.00
2019-04-29T13:57:50.797Z,31200.00
2019-04-29T13:58:49.605Z,31008.00
2019-04-29T13:59:50.485Z,28896.00
2019-04-29T14:00:49.565Z,25152.00
2019-04-29T14:02:00.095Z,20544.00
2019-04-29T14:02:58.719Z,17664.00
2019-04-29T14:03:49.611Z,14720.00
2019-04-29T14:04:49.507Z,12680.00
2019-04-29T14:06:03.348Z,12944.00
2019-04-29T14:06:56.654Z,14524.00
2019-04-29T14:07:52.730Z,17184.00
2019-04-29T14:08:49.450Z,20128.00
2019-04-29T14:09:49.438Z,24032.00
2019-04-29T14:10:51.090Z,43520.00
2019-04-29T14:12:01.112Z,37600.00
2019-04-29T14:13:00.766Z,31744.00
2019-04-29T14:13:49.387Z,31328.00
2019-04-29T14:14:49.377Z,34048.00
2019-04-29T14:15:49.375Z,27712.00
2019-04-29T14:16:49.349Z,25888.00
2019-04-29T14:17:49.338Z,29856.00
2019-04-29T14:18:49.949Z,23296.00
2019-04-29T14:19:49.312Z,22592.00
2019-04-29T14:20:51.779Z,23008.00
2019-04-29T14:21:49.285Z,24672.00
2019-04-29T14:22:49.272Z,23136.00
2019-04-29T14:23:49.260Z,22912.00
2019-04-29T14:24:49.246Z,23936.00
2019-04-29T14:25:49.252Z,25664.00
2019-04-29T14:26:49.219Z,40608.00
2019-04-29T14:27:49.207Z,43328.00
2019-04-29T14:28:49.206Z,33088.00
2019-04-29T14:29:51.440Z,31360.00
2019-04-29T14:30:49.311Z,32320.00
2019-04-29T14:31:49.169Z,32384.00
2019-04-29T14:32:49.808Z,33248.00
2019-04-29T14:33:49.127Z,29184.00
2019-04-29T14:34:49.116Z,27776.00
2019-04-29T14:35:49.929Z,28224.00
2019-04-29T14:36:49.106Z,30560.00
2019-04-29T14:37:55.249Z,27744.00
2019-04-29T14:38:49.065Z,17344.00
2019-04-29T14:39:49.049Z,15316.00
2019-04-29T14:40:49.036Z,16832.00
2019-04-29T14:41:50.979Z,15596.00
2019-04-29T14:42:57.429Z,15204.00
2019-04-29T14:43:50.591Z,16128.00
2019-04-29T14:44:48.984Z,17504.00
2019-04-29T14:45:48.971Z,19552.00
2019-04-29T14:46:48.969Z,20000.00
2019-04-29T14:47:48.943Z,19040.00
2019-04-29T14:48:48.942Z,17920.00
2019-04-29T14:49:48.917Z,18048.00
2019-04-29T14:50:49.494Z,18560.00
2019-04-29T14:51:48.904Z,18784.00
2019-04-29T14:52:49.445Z,18208.00
2019-04-29T14:53:56.131Z,18080.00
2019-04-29T14:54:48.849Z,17728.00
2019-04-29T14:55:48.837Z,17536.00
2019-04-29T14:56:48.837Z,17088.00
2019-04-29T14:57:48.809Z,16480.00
2019-04-29T14:58:48.843Z,15656.00
2019-04-29T14:59:49.006Z,14848.00
2019-04-29T15:00:48.792Z,14032.00
2019-04-29T15:01:48.918Z,13312.00
2019-04-29T15:02:48.764Z,12512.00
2019-04-29T15:03:48.787Z,11672.00
2019-04-29T15:04:48.735Z,11092.00
2019-04-29T15:05:48.697Z,10556.00
2019-04-29T15:06:48.831Z,9940.00
2019-04-29T15:07:48.687Z,9508.00
2019-04-29T15:08:48.661Z,9196.00
2019-04-29T15:09:51.332Z,8868.00
2019-04-29T15:10:48.667Z,8464.00
2019-04-29T15:11:48.667Z,8052.00
2019-04-29T15:12:52.041Z,8000.00
2019-04-29T15:13:49.038Z,8056.00
2019-04-29T15:14:48.569Z,8288.00
2019-04-29T15:15:48.555Z,8704.00
2019-04-29T15:16:48.539Z,8928.00
2019-04-29T15:17:48.537Z,9176.00
2019-04-29T15:18:50.648Z,9412.00
2019-04-29T15:19:52.174Z,9300.00
2019-04-29T15:20:48.479Z,9004.00
2019-04-29T15:21:48.732Z,8584.00
2019-04-29T15:22:48.466Z,8076.00
2019-04-29T15:23:48.436Z,7476.00
2019-04-29T15:24:48.419Z,7196.00
2019-04-29T15:25:48.407Z,7364.00
2019-04-29T15:26:48.390Z,7756.00
2019-04-29T15:27:48.394Z,8136.00
2019-04-29T15:28:48.360Z,8776.00
2019-04-29T15:29:48.348Z,9184.00
2019-04-29T15:30:48.333Z,9820.00
2019-04-29T15:31:48.993Z,10456.00
2019-04-29T15:32:48.319Z,10884.00
2019-04-29T15:33:48.284Z,11276.00
2019-04-29T15:34:49.745Z,11756.00
2019-04-29T15:35:48.259Z,11748.00
2019-04-29T15:36:48.238Z,11288.00
2019-04-29T15:37:48.237Z,10964.00
2019-04-29T15:39:07.994Z,10528.00
2019-04-29T15:39:48.196Z,9504.00
2019-04-29T15:40:48.178Z,8360.00
2019-04-29T15:41:48.289Z,7696.00
2019-04-29T15:42:50.043Z,7252.00
2019-04-29T15:43:48.561Z,7204.00
2019-04-29T15:44:51.647Z,7044.00
2019-04-29T15:45:48.152Z,7200.00
2019-04-29T15:46:48.085Z,7536.00
2019-04-29T15:47:48.096Z,7280.00
2019-04-29T15:48:48.095Z,6784.00
2019-04-29T15:49:48.044Z,6268.00
2019-04-29T15:50:48.023Z,6008.00
2019-04-29T15:51:49.353Z,5792.00
2019-04-29T15:52:48.007Z,5588.00
2019-04-29T15:53:47.980Z,5856.00
2019-04-29T15:54:51.060Z,6140.00
2019-04-29T15:55:47.947Z,6216.00
2019-04-29T15:56:47.947Z,6372.00
2019-04-29T15:57:50.401Z,6732.00
2019-04-29T15:58:48.067Z,7024.00
2019-04-29T16:00:47.885Z,6316.00
2019-04-29T16:01:47.905Z,5604.00
2019-04-29T16:02:54.921Z,4620.00
2019-04-29T16:03:49.942Z,3756.00
2019-04-29T16:04:47.806Z,3248.00
2019-04-29T16:06:11.224Z,2700.00
2019-04-29T16:06:47.775Z,2428.00
2019-04-29T16:07:51.519Z,2564.00
2019-04-29T16:08:47.758Z,2848.00
2019-04-29T16:09:51.877Z,3064.00
2019-04-29T16:10:51.663Z,3128.00
2019-04-29T16:11:47.692Z,3120.00
2019-04-29T16:12:51.089Z,3064.00
2019-04-29T16:13:49.936Z,3096.00
2019-04-29T16:14:49.185Z,3388.00
2019-04-29T16:15:47.632Z,3840.00
2019-04-29T16:16:47.613Z,4428.00
2019-04-29T16:17:47.596Z,4908.00
2019-04-29T16:18:47.600Z,5376.00
2019-04-29T16:19:47.566Z,5552.00
2019-04-29T16:20:53.768Z,5420.00
2019-04-29T16:21:47.532Z,5212.00
2019-04-29T16:22:47.518Z,4960.00
2019-04-29T16:23:47.520Z,4508.00
2019-04-29T16:24:47.485Z,4040.00
2019-04-29T16:25:52.434Z,3968.00
2019-04-29T16:26:53.274Z,4156.00
2019-04-29T16:27:53.053Z,4260.00
2019-04-29T16:28:47.420Z,4296.00
2019-04-29T16:29:51.705Z,4372.00
2019-04-29T16:30:47.390Z,4224.00
2019-04-29T16:31:47.370Z,3972.00
2019-04-29T16:32:47.353Z,3740.00
2019-04-29T16:33:54.729Z,3536.00
2019-04-29T16:34:47.341Z,3396.00
2019-04-29T16:35:47.305Z,3168.00
2019-04-29T16:36:49.982Z,2976.00
2019-04-29T16:37:47.272Z,2860.00
2019-04-29T16:38:51.520Z,2740.00
2019-04-29T16:39:47.252Z,2616.00
2019-04-29T16:40:47.290Z,2508.00
2019-04-29T16:41:51.011Z,2384.00
2019-04-29T16:42:47.188Z,2264.00
2019-04-29T16:43:47.173Z,2140.00
2019-04-29T16:44:47.176Z,2072.00
2019-04-29T16:45:51.764Z,2088.00
2019-04-29T16:46:47.124Z,2140.00
2019-04-29T16:47:48.664Z,2188.00
2019-04-29T16:48:47.092Z,2180.00
2019-04-29T16:49:47.088Z,2216.00
2019-04-29T16:50:47.060Z,2308.00
2019-04-29T16:51:47.846Z,2348.00
2019-04-29T16:52:47.024Z,2324.00
2019-04-29T16:53:47.009Z,2244.00
2019-04-29T16:54:47.011Z,2132.00
2019-04-29T16:55:46.973Z,2056.00
2019-04-29T16:56:46.956Z,2012.00
2019-04-29T16:57:46.941Z,1996.00
2019-04-29T16:58:46.925Z,2008.00
2019-04-29T16:59:46.921Z,2024.00
2019-04-29T17:00:52.385Z,2048.00
2019-04-29T17:01:46.874Z,2072.00
2019-04-29T17:02:46.860Z,2080.00
2019-04-29T17:03:46.841Z,2088.00
2019-04-29T17:04:46.857Z,2156.00
2019-04-29T17:05:46.808Z,2240.00
2019-04-29T17:07:10.790Z,2340.00
2019-04-29T17:07:46.773Z,2384.00
2019-04-29T17:08:50.714Z,2324.00
2019-04-29T17:09:46.756Z,2164.00
2019-04-29T17:10:46.728Z,2052.00
2019-04-29T17:11:50.407Z,1992.00
2019-04-29T17:12:46.688Z,1812.00
2019-04-29T17:13:46.672Z,1600.00
2019-04-29T17:15:02.760Z,1472.00
2019-04-29T17:15:52.248Z,1472.00
2019-04-29T17:16:46.620Z,1504.00
2019-04-29T17:17:46.606Z,1520.00
2019-04-29T17:18:46.586Z,1428.00
2019-04-29T17:19:46.569Z,1412.00
2019-04-29T17:20:46.565Z,1444.00
2019-04-29T17:21:46.537Z,1408.00
2019-04-29T17:22:46.537Z,1396.00
2019-04-29T17:23:46.500Z,1428.00
2019-04-29T17:24:46.482Z,1500.00
2019-04-29T17:25:46.484Z,1444.00
2019-04-29T17:26:46.451Z,1452.00
2019-04-29T17:27:46.430Z,1704.00
2019-04-29T17:28:46.411Z,1872.00
2019-04-29T17:29:49.595Z,1888.00
2019-04-29T17:30:48.608Z,1916.00
2019-04-29T17:31:55.953Z,1972.00
2019-04-29T17:32:48.443Z,1972.00
2019-04-29T17:33:49.868Z,1816.00
2019-04-29T17:34:58.699Z,1720.00
2019-04-29T17:35:18.936Z,6860.00
2019-04-29T17:35:47.772Z,1628.00
2019-04-29T17:36:46.270Z,1528.00
2019-04-29T17:37:46.254Z,1364.00
2019-04-29T17:38:46.235Z,1228.00
2019-04-29T17:39:46.221Z,1172.00
2019-04-29T17:40:51.212Z,1108.00
2019-04-29T17:41:46.181Z,1036.00
2019-04-29T17:42:46.166Z,988.00
2019-04-29T17:43:46.145Z,936.00
2019-04-29T17:44:46.125Z,864.00
2019-04-29T17:45:46.121Z,836.00
2019-04-29T17:46:46.093Z,804.00
2019-04-29T17:47:47.359Z,764.00
2019-04-29T17:48:48.583Z,720.00
2019-04-29T17:49:46.036Z,704.00
2019-04-29T17:50:47.719Z,672.00
2019-04-29T17:51:46.049Z,644.00
2019-04-29T17:52:45.982Z,616.00
2019-04-29T17:53:46.070Z,604.00
2019-04-29T17:54:45.997Z,616.00
2019-04-29T17:55:45.981Z,620.00
2019-04-29T17:56:45.910Z,600.00
2019-04-29T17:57:45.890Z,572.00
2019-04-29T17:58:51.322Z,560.00
2019-04-29T17:59:45.918Z,540.00
2019-04-29T18:00:55.428Z,524.00
2019-04-29T18:01:46.919Z,504.00
2019-04-29T18:02:45.825Z,484.00
2019-04-29T18:03:46.054Z,476.00
2019-04-29T18:04:45.763Z,484.00
2019-04-29T18:05:54.923Z,500.00
2019-04-29T18:06:45.728Z,500.00
2019-04-29T18:07:51.686Z,480.00
2019-04-29T18:08:45.690Z,456.00
2019-04-29T18:09:47.494Z,440.00
2019-04-29T18:10:45.882Z,436.00
2019-04-29T18:11:51.529Z,436.00
2019-04-29T18:12:45.614Z,436.00
2019-04-29T18:13:45.953Z,448.00
2019-04-29T18:14:45.579Z,464.00
2019-04-29T18:15:58.605Z,488.00
2019-04-29T18:16:47.808Z,504.00
2019-04-29T18:17:45.534Z,508.00
2019-04-29T18:18:49.170Z,512.00
2019-04-29T18:19:47.181Z,516.00
2019-04-29T18:20:47.219Z,524.00
2019-04-29T18:21:47.416Z,524.00
2019-04-29T18:22:45.430Z,508.00
2019-04-29T18:23:47.080Z,460.00
2019-04-29T18:24:45.398Z,396.00
2019-04-29T18:25:45.379Z,332.00
2019-04-29T18:26:48.121Z,284.00
2019-04-29T18:27:48.975Z,256.00
2019-04-29T18:28:45.747Z,248.00
2019-04-29T18:29:45.834Z,240.00
2019-04-29T18:30:45.281Z,240.00
2019-04-29T18:31:46.599Z,236.00
2019-04-29T18:32:46.703Z,236.00
2019-04-29T18:33:45.231Z,228.00
2019-04-29T18:34:45.352Z,208.00
2019-04-29T18:35:46.714Z,192.00
2019-04-29T18:36:45.777Z,176.00
2019-04-29T18:37:45.598Z,164.00
2019-04-29T18:38:47.355Z,152.00
2019-04-29T18:39:45.115Z,148.00
2019-04-29T18:40:46.783Z,140.00
2019-04-29T18:41:45.090Z,128.00
2019-04-29T18:42:48.448Z,116.00
2019-04-29T18:43:45.232Z,100.00
2019-04-29T18:44:56.528Z,92.00
2019-04-29T18:45:55.542Z,88.00
2019-04-29T18:46:53.226Z,80.00
2019-04-29T18:47:44.967Z,72.00
2019-04-29T18:48:45.685Z,60.00
2019-04-29T18:49:45.414Z,52.00
2019-04-29T18:50:44.910Z,44.00
2019-04-29T18:51:45.556Z,36.00
2019-04-29T18:52:45.855Z,32.00
2019-04-29T18:53:44.853Z,32.00
2019-04-29T18:54:45.066Z,28.00
2019-04-29T18:55:45.094Z,24.00
2019-04-29T18:56:45.662Z,16.00
2019-04-29T18:57:44.780Z,16.00
2019-04-29T18:58:46.907Z,12.00
2019-04-29T18:59:45.830Z,8.00
2019-04-29T19:00:49.530Z,8.00
2019-04-29T19:01:45.103Z,12.00
2019-04-29T19:02:47.948Z,8.00
2019-04-29T19:03:45.776Z,8.00
2019-04-29T19:04:46.816Z,8.00
2019-04-29T19:05:45.388Z,8.00
2019-04-29T19:06:44.626Z,4.00
2019-04-29T19:07:55.039Z,4.00
2019-04-29T19:08:44.968Z,4.00
2019-04-29T19:09:45.322Z,0.00
2019-04-29T19:10:49.908Z,4.00
2019-04-29T19:11:46.192Z,4.00
2019-04-29T19:12:46.005Z,0.00
2019-04-29T19:13:48.424Z,4.00
2019-04-29T19:14:47.629Z,4.00
2019-04-29T19:15:47.447Z,0.00
2019-04-29T19:16:45.864Z,0.00
2019-04-29T19:17:46.605Z,0.00
2019-04-29T19:18:45.076Z,0.00
2019-04-29T19:19:45.222Z,0.00
2019-04-29T19:20:47.827Z,0.00
2019-04-29T19:21:45.535Z,0.00
2019-04-29T19:22:47.254Z,0.00
2019-04-29T19:23:45.846Z,0.00
2019-04-29T19:24:47.954Z,0.00
2019-04-29T19:25:48.316Z,0.00
2019-04-29T19:26:44.865Z,0.00
2019-04-29T19:27:45.432Z,0.00
2019-04-29T19:28:45.184Z,0.00
2019-04-29T19:29:44.575Z,0.00
2019-04-29T19:30:45.161Z,0.00
2019-04-29T19:31:48.336Z,0.00
2019-04-29T19:32:45.054Z,0.00
2019-04-29T19:33:45.854Z,0.00
2019-04-29T19:34:45.875Z,0.00
2019-04-29T19:35:45.144Z,0.00
2019-04-29T19:36:45.138Z,0.00
2019-04-29T19:37:45.317Z,0.00
2019-04-29T19:38:47.230Z,0.00
2019-04-29T19:39:44.929Z,0.00
2019-04-29T19:40:43.978Z,0.00
2019-04-29T19:41:45.470Z,0.00
2019-04-29T19:42:46.926Z,0.00
2019-04-29T19:43:48.258Z,0.00
2019-04-29T19:44:45.259Z,0.00
2019-04-29T19:45:44.771Z,0.00
2019-04-29T19:46:45.364Z,0.00
2019-04-29T19:47:47.393Z,0.00
2019-04-29T19:48:45.142Z,0.00
2019-04-29T19:49:44.640Z,0.00
2019-04-29T19:50:45.223Z,0.00
2019-04-29T19:51:47.230Z,0.00
2019-04-29T19:52:45.401Z,0.00
2019-04-29T19:53:49.139Z,0.00
2019-04-29T19:54:43.746Z,0.00
2019-04-29T19:55:45.605Z,0.00
2019-04-29T19:56:43.676Z,0.00
2019-04-29T19:57:48.047Z,0.00
2019-04-29T19:58:43.956Z,0.00
2019-04-29T19:59:51.496Z,0.00
2019-04-29T20:00:44.225Z,0.00
2019-04-29T20:01:48.461Z,0.00
2019-04-29T20:02:48.216Z,0.00
2019-04-29T20:03:47.354Z,0.00
2019-04-29T20:04:43.825Z,0.00
2019-04-29T20:05:45.842Z,0.00
2019-04-29T20:06:45.629Z,0.00
2019-04-29T20:07:46.381Z,0.00
2019-04-29T20:08:54.208Z,0.00
2019-04-29T20:09:44.338Z,0.00
2019-04-29T20:10:48.211Z,0.00
2019-04-29T20:11:45.413Z,0.00
2019-04-29T20:12:46.097Z,0.00
2019-04-29T20:13:58.329Z,0.00
2019-04-29T20:14:43.655Z,0.00
2019-04-29T20:15:45.552Z,0.00
2019-04-29T20:16:52.611Z,0.00
2019-04-29T20:17:45.781Z,0.00
2019-04-29T20:18:56.178Z,0.00
2019-04-29T20:19:45.614Z,0.00
2019-04-29T20:20:43.312Z,0.00
2019-04-29T20:21:43.308Z,0.00
2019-04-29T20:22:48.836Z,0.00
2019-04-29T20:23:43.240Z,0.00
2019-04-29T20:24:49.308Z,0.00
2019-04-29T20:25:43.256Z,0.00
2019-04-29T20:26:44.149Z,0.00
2019-04-29T20:27:43.554Z,0.00
2019-04-29T20:28:43.179Z,0.00
2019-04-29T20:29:43.218Z,0.00
2019-04-29T20:30:43.138Z,0.00
2019-04-29T20:31:48.576Z,0.00
2019-04-29T20:32:43.180Z,0.00
2019-04-29T20:33:46.846Z,0.00
2019-04-29T20:34:43.018Z,0.00
2019-04-29T20:35:45.442Z,0.00
2019-04-29T20:36:43.179Z,0.00
2019-04-29T20:37:43.358Z,0.00
2019-04-29T20:38:43.023Z,0.00
2019-04-29T20:39:42.990Z,0.00
2019-04-29T20:40:43.601Z,0.00
2019-04-29T20:41:44.825Z,0.00
2019-04-29T20:42:45.325Z,0.00
2019-04-29T20:43:42.951Z,0.00
2019-04-29T20:44:47.620Z,0.00
2019-04-29T20:45:42.824Z,0.00
2019-04-29T20:46:51.714Z,0.00
2019-04-29T20:47:42.773Z,0.00
2019-04-29T20:48:42.777Z,0.00
2019-04-29T20:49:42.771Z,0.00
2019-04-29T20:50:47.737Z,0.00